sensor_id;sensor_type;location;lat;lon;timestamp;pressure;altitude;pressure_sealevel;temperature;humidity
13800;BME280;6971;50.028;9.258;2023-10-08T00:00:49;100119.78;;;10.64;100.00
13800;BME280;6971;50.028;9.258;2023-10-08T00:05:49;100123.81;;;10.52;100.00
13800;BME280;6971;50.028;9.258;2023-10-08T00:10:50;100128.09;;;10.54;100.00
13800;BME280;6971;50.028;9.258;2023-10-08T00:15:51;100130.53;;;10.59;100.00
13800;BME280;6971;50.028;9.258;2023-10-08T00:20:55;100121.41;;;10.66;100.00
13800;BME280;6971;50.028;9.258;2023-10-08T00:26:15;100113.72;;;10.62;100.00
13800;BME280;6971;50.028;9.258;2023-10-08T00:31:19;100130.59;;;10.57;100.00
13800;BME280;6971;50.028;9.258;2023-10-08T00:36:19;100122.28;;;10.67;100.00
13800;BME280;6971;50.028;9.258;2023-10-08T00:41:20;100129.00;;;10.74;100.00
13800;BME280;6971;50.028;9.258;2023-10-08T00:46:29;100120.31;;;10.72;100.00
13800;BME280;6971;50.028;9.258;2023-10-08T00:51:32;100115.69;;;10.77;100.00
13800;BME280;6971;50.028;9.258;2023-10-08T00:56:40;100105.66;;;10.86;100.00
13800;BME280;6971;50.028;9.258;2023-10-08T01:01:53;100112.78;;;10.83;100.00
13800;BME280;6971;50.028;9.258;2023-10-08T01:07:06;100103.75;;;10.89;100.00
13800;BME280;6971;50.028;9.258;2023-10-08T01:12:21;100098.38;;;10.91;100.00
13800;BME280;6971;50.028;9.258;2023-10-08T01:17:29;100102.66;;;10.93;100.00
13800;BME280;6971;50.028;9.258;2023-10-08T01:22:32;100096.44;;;10.96;100.00
13800;BME280;6971;50.028;9.258;2023-10-08T01:27:33;100099.97;;;10.95;100.00
13800;BME280;6971;50.028;9.258;2023-10-08T01:32:34;100105.19;;;10.96;100.00
13800;BME280;6971;50.028;9.258;2023-10-08T01:37:35;100116.59;;;10.97;100.00
13800;BME280;6971;50.028;9.258;2023-10-08T01:42:36;100104.19;;;10.99;100.00
13800;BME280;6971;50.028;9.258;2023-10-08T01:47:39;100103.19;;;11.02;100.00
13800;BME280;6971;50.028;9.258;2023-10-08T01:52:39;100111.97;;;11.02;100.00
13800;BME280;6971;50.028;9.258;2023-10-08T01:57:41;100108.13;;;11.09;100.00
13800;BME280;6971;50.028;9.258;2023-10-08T02:02:43;100109.72;;;11.14;100.00
13800;BME280;6971;50.028;9.258;2023-10-08T02:07:43;100113.25;;;11.13;100.00
13800;BME280;6971;50.028;9.258;2023-10-08T02:12:46;100108.63;;;11.18;100.00
13800;BME280;6971;50.028;9.258;2023-10-08T02:17:47;100121.75;;;11.19;100.00
13800;BME280;6971;50.028;9.258;2023-10-08T02:22:48;100116.47;;;11.19;100.00
13800;BME280;6971;50.028;9.258;2023-10-08T02:27:52;100123.53;;;11.19;100.00
13800;BME280;6971;50.028;9.258;2023-10-08T02:32:53;100114.41;;;11.26;100.00
13800;BME280;6971;50.028;9.258;2023-10-08T02:37:53;100111.81;;;11.25;100.00
13800;BME280;6971;50.028;9.258;2023-10-08T02:42:57;100103.13;;;11.22;100.00
13800;BME280;6971;50.028;9.258;2023-10-08T02:47:58;100108.84;;;11.32;100.00
13800;BME280;6971;50.028;9.258;2023-10-08T02:52:59;100098.22;;;11.34;100.00
13800;BME280;6971;50.028;9.258;2023-10-08T02:58:03;100100.44;;;11.43;100.00
13800;BME280;6971;50.028;9.258;2023-10-08T03:03:04;100112.06;;;11.39;100.00
13800;BME280;6971;50.028;9.258;2023-10-08T03:08:15;100110.25;;;11.40;100.00
13800;BME280;6971;50.028;9.258;2023-10-08T03:13:23;100122.25;;;11.47;100.00
13800;BME280;6971;50.028;9.258;2023-10-08T03:18:27;100115.28;;;11.46;100.00
13800;BME280;6971;50.028;9.258;2023-10-08T03:23:35;100113.56;;;11.45;100.00
13800;BME280;6971;50.028;9.258;2023-10-08T03:28:37;100127.66;;;11.44;100.00
13800;BME280;6971;50.028;9.258;2023-10-08T03:33:38;100142.72;;;11.42;100.00
13800;BME280;6971;50.028;9.258;2023-10-08T03:38:38;100136.38;;;11.46;100.00
13800;BME280;6971;50.028;9.258;2023-10-08T03:43:45;100143.81;;;11.38;100.00
13800;BME280;6971;50.028;9.258;2023-10-08T03:49:18;100164.28;;;11.32;100.00
13800;BME280;6971;50.028;9.258;2023-10-08T03:54:21;100159.13;;;11.29;100.00
13800;BME280;6971;50.028;9.258;2023-10-08T03:59:34;100158.59;;;11.21;100.00
13800;BME280;6971;50.028;9.258;2023-10-08T04:04:43;100168.81;;;11.09;100.00
13800;BME280;6971;50.028;9.258;2023-10-08T04:10:13;100155.91;;;11.22;100.00
13800;BME280;6971;50.028;9.258;2023-10-08T04:15:13;100149.63;;;11.25;100.00
13800;BME280;6971;50.028;9.258;2023-10-08T04:20:17;100154.72;;;11.30;100.00
13800;BME280;6971;50.028;9.258;2023-10-08T04:25:39;100151.28;;;11.28;100.00
13800;BME280;6971;50.028;9.258;2023-10-08T04:30:39;100145.81;;;11.32;100.00
13800;BME280;6971;50.028;9.258;2023-10-08T04:35:43;100136.81;;;11.36;100.00
13800;BME280;6971;50.028;9.258;2023-10-08T04:40:56;100129.03;;;11.33;100.00
13800;BME280;6971;50.028;9.258;2023-10-08T04:46:01;100126.31;;;11.35;100.00
13800;BME280;6971;50.028;9.258;2023-10-08T04:51:32;100130.81;;;11.14;100.00
13800;BME280;6971;50.028;9.258;2023-10-08T04:56:44;100134.59;;;11.27;100.00
13800;BME280;6971;50.028;9.258;2023-10-08T05:01:44;100135.09;;;11.16;100.00
13800;BME280;6971;50.028;9.258;2023-10-08T05:06:47;100131.59;;;11.16;100.00
13800;BME280;6971;50.028;9.258;2023-10-08T05:11:52;100131.72;;;11.13;100.00
13800;BME280;6971;50.028;9.258;2023-10-08T05:16:55;100145.06;;;11.09;100.00
13800;BME280;6971;50.028;9.258;2023-10-08T05:22:12;100140.50;;;11.13;100.00
13800;BME280;6971;50.028;9.258;2023-10-08T05:27:30;100125.34;;;10.97;100.00
13800;BME280;6971;50.028;9.258;2023-10-08T05:32:48;100135.75;;;11.01;100.00
13800;BME280;6971;50.028;9.258;2023-10-08T05:38:04;100148.44;;;10.92;100.00
13800;BME280;6971;50.028;9.258;2023-10-08T05:43:16;100128.31;;;11.10;100.00
13800;BME280;6971;50.028;9.258;2023-10-08T05:48:33;100132.94;;;11.05;100.00
13800;BME280;6971;50.028;9.258;2023-10-08T05:53:45;100131.06;;;11.07;100.00
13800;BME280;6971;50.028;9.258;2023-10-08T05:58:48;100118.47;;;11.14;100.00
13800;BME280;6971;50.028;9.258;2023-10-08T06:04:00;100118.53;;;11.13;100.00
13800;BME280;6971;50.028;9.258;2023-10-08T06:09:03;100128.25;;;11.12;100.00
13800;BME280;6971;50.028;9.258;2023-10-08T06:14:11;100131.22;;;11.23;100.00
13800;BME280;6971;50.028;9.258;2023-10-08T06:19:17;100145.81;;;11.32;100.00
13800;BME280;6971;50.028;9.258;2023-10-08T06:24:17;100180.16;;;11.31;100.00
13800;BME280;6971;50.028;9.258;2023-10-08T06:29:19;100188.25;;;11.47;100.00
13800;BME280;6971;50.028;9.258;2023-10-08T06:34:26;100217.28;;;11.66;100.00
13800;BME280;6971;50.028;9.258;2023-10-08T06:39:28;100209.06;;;11.72;100.00
13800;BME280;6971;50.028;9.258;2023-10-08T06:44:47;100206.75;;;11.85;100.00
13800;BME280;6971;50.028;9.258;2023-10-08T06:49:48;100218.38;;;12.00;100.00
13800;BME280;6971;50.028;9.258;2023-10-08T06:54:49;100228.53;;;12.10;100.00
13800;BME280;6971;50.028;9.258;2023-10-08T06:59:50;100228.50;;;12.29;100.00
13800;BME280;6971;50.028;9.258;2023-10-08T07:04:50;100235.88;;;12.40;100.00
13800;BME280;6971;50.028;9.258;2023-10-08T07:09:51;100247.91;;;12.65;100.00
13800;BME280;6971;50.028;9.258;2023-10-08T07:14:57;100257.31;;;12.71;100.00
13800;BME280;6971;50.028;9.258;2023-10-08T07:19:58;100253.13;;;12.84;100.00
13800;BME280;6971;50.028;9.258;2023-10-08T07:24:59;100264.88;;;12.96;100.00
13800;BME280;6971;50.028;9.258;2023-10-08T07:29:59;100253.75;;;13.07;100.00
13800;BME280;6971;50.028;9.258;2023-10-08T07:35:03;100263.56;;;13.23;100.00
13800;BME280;6971;50.028;9.258;2023-10-08T07:40:28;100272.06;;;13.63;100.00
13800;BME280;6971;50.028;9.258;2023-10-08T07:45:29;100267.88;;;13.59;100.00
13800;BME280;6971;50.028;9.258;2023-10-08T07:50:41;100240.81;;;13.86;100.00
13800;BME280;6971;50.028;9.258;2023-10-08T07:55:42;100256.72;;;14.18;100.00
13800;BME280;6971;50.028;9.258;2023-10-08T08:00:44;100239.44;;;14.43;100.00
13800;BME280;6971;50.028;9.258;2023-10-08T08:05:56;100222.59;;;14.44;100.00
13800;BME280;6971;50.028;9.258;2023-10-08T08:11:05;100234.78;;;14.63;100.00
13800;BME280;6971;50.028;9.258;2023-10-08T08:16:13;100251.16;;;14.86;100.00
13800;BME280;6971;50.028;9.258;2023-10-08T08:21:21;100243.97;;;14.88;100.00
13800;BME280;6971;50.028;9.258;2023-10-08T08:26:23;100246.00;;;14.99;100.00
13800;BME280;6971;50.028;9.258;2023-10-08T08:31:28;100265.41;;;14.99;100.00
13800;BME280;6971;50.028;9.258;2023-10-08T08:36:31;100269.84;;;15.30;100.00
13800;BME280;6971;50.028;9.258;2023-10-08T08:41:38;100265.88;;;15.37;100.00
13800;BME280;6971;50.028;9.258;2023-10-08T08:46:38;100274.59;;;15.39;100.00
13800;BME280;6971;50.028;9.258;2023-10-08T08:51:40;100280.66;;;15.26;100.00
13800;BME280;6971;50.028;9.258;2023-10-08T08:56:42;100296.44;;;15.44;100.00
13800;BME280;6971;50.028;9.258;2023-10-08T09:01:44;100314.63;;;15.50;100.00
13800;BME280;6971;50.028;9.258;2023-10-08T09:06:45;100308.13;;;16.00;100.00
13800;BME280;6971;50.028;9.258;2023-10-08T09:11:45;100325.97;;;16.54;100.00
13800;BME280;6971;50.028;9.258;2023-10-08T09:16:46;100341.31;;;17.19;100.00
13800;BME280;6971;50.028;9.258;2023-10-08T09:22:04;100335.47;;;17.14;100.00
13800;BME280;6971;50.028;9.258;2023-10-08T09:27:10;100352.66;;;17.35;100.00
13800;BME280;6971;50.028;9.258;2023-10-08T09:32:14;100349.91;;;17.50;100.00
13800;BME280;6971;50.028;9.258;2023-10-08T09:37:23;100328.88;;;17.45;100.00
13800;BME280;6971;50.028;9.258;2023-10-08T09:42:23;100321.53;;;17.23;100.00
13800;BME280;6971;50.028;9.258;2023-10-08T09:47:27;100331.56;;;18.10;100.00
13800;BME280;6971;50.028;9.258;2023-10-08T09:52:39;100331.22;;;18.02;100.00
13800;BME280;6971;50.028;9.258;2023-10-08T09:57:43;100329.28;;;18.04;100.00
13800;BME280;6971;50.028;9.258;2023-10-08T10:02:44;100315.47;;;17.73;100.00
13800;BME280;6971;50.028;9.258;2023-10-08T10:07:47;100326.63;;;18.04;100.00
13800;BME280;6971;50.028;9.258;2023-10-08T10:12:48;100337.72;;;17.98;100.00
13800;BME280;6971;50.028;9.258;2023-10-08T10:17:48;100336.25;;;17.94;100.00
13800;BME280;6971;50.028;9.258;2023-10-08T10:22:49;100320.47;;;17.78;100.00
13800;BME280;6971;50.028;9.258;2023-10-08T10:32:51;100348.50;;;17.44;100.00
13800;BME280;6971;50.028;9.258;2023-10-08T10:37:52;100329.94;;;17.30;100.00
13800;BME280;6971;50.028;9.258;2023-10-08T10:42:56;100345.81;;;17.83;100.00
13800;BME280;6971;50.028;9.258;2023-10-08T10:47:56;100354.56;;;18.62;100.00
13800;BME280;6971;50.028;9.258;2023-10-08T10:53:10;100365.16;;;19.12;96.60
13800;BME280;6971;50.028;9.258;2023-10-08T10:58:11;100362.22;;;18.66;100.00
13800;BME280;6971;50.028;9.258;2023-10-08T11:03:12;100370.91;;;18.20;100.00
13800;BME280;6971;50.028;9.258;2023-10-08T11:08:23;100375.69;;;18.14;100.00
13800;BME280;6971;50.028;9.258;2023-10-08T11:13:24;100386.78;;;18.34;100.00
13800;BME280;6971;50.028;9.258;2023-10-08T11:18:28;100388.94;;;18.16;100.00
13800;BME280;6971;50.028;9.258;2023-10-08T11:23:32;100387.66;;;18.22;100.00
13800;BME280;6971;50.028;9.258;2023-10-08T11:28:38;100392.38;;;18.56;100.00
13800;BME280;6971;50.028;9.258;2023-10-08T11:33:43;100367.41;;;19.30;95.81
13800;BME280;6971;50.028;9.258;2023-10-08T11:38:57;100346.31;;;18.89;96.53
13800;BME280;6971;50.028;9.258;2023-10-08T11:44:07;100340.06;;;18.77;95.77
13800;BME280;6971;50.028;9.258;2023-10-08T11:49:13;100336.78;;;18.98;97.99
13800;BME280;6971;50.028;9.258;2023-10-08T11:54:19;100340.28;;;19.23;96.85
13800;BME280;6971;50.028;9.258;2023-10-08T11:59:20;100342.16;;;19.46;96.31
13800;BME280;6971;50.028;9.258;2023-10-08T12:04:20;100330.88;;;19.06;98.09
13800;BME280;6971;50.028;9.258;2023-10-08T12:09:23;100328.75;;;19.23;99.05
13800;BME280;6971;50.028;9.258;2023-10-08T12:14:27;100328.69;;;19.11;97.80
13800;BME280;6971;50.028;9.258;2023-10-08T12:19:30;100320.69;;;19.11;100.00
13800;BME280;6971;50.028;9.258;2023-10-08T12:24:32;100331.38;;;19.11;100.00
13800;BME280;6971;50.028;9.258;2023-10-08T12:29:33;100338.25;;;19.38;99.68
13800;BME280;6971;50.028;9.258;2023-10-08T12:34:35;100348.66;;;19.18;100.00
13800;BME280;6971;50.028;9.258;2023-10-08T12:39:35;100336.28;;;19.17;99.36
13800;BME280;6971;50.028;9.258;2023-10-08T12:44:44;100337.06;;;19.65;94.07
13800;BME280;6971;50.028;9.258;2023-10-08T12:49:47;100346.56;;;19.81;94.61
13800;BME280;6971;50.028;9.258;2023-10-08T12:54:48;100336.97;;;20.35;88.28
13800;BME280;6971;50.028;9.258;2023-10-08T12:59:49;100336.88;;;20.14;91.89
13800;BME280;6971;50.028;9.258;2023-10-08T13:04:51;100332.09;;;20.29;91.80
13800;BME280;6971;50.028;9.258;2023-10-08T13:09:55;100326.41;;;19.88;93.71
13800;BME280;6971;50.028;9.258;2023-10-08T13:14:55;100327.84;;;19.58;95.04
13800;BME280;6971;50.028;9.258;2023-10-08T13:19:55;100316.19;;;19.93;92.57
13800;BME280;6971;50.028;9.258;2023-10-08T13:24:56;100320.56;;;19.94;94.66
13800;BME280;6971;50.028;9.258;2023-10-08T13:29:56;100305.59;;;19.80;94.88
13800;BME280;6971;50.028;9.258;2023-10-08T13:34:57;100312.91;;;19.67;95.25
13800;BME280;6971;50.028;9.258;2023-10-08T13:39:58;100306.56;;;19.56;97.07
13800;BME280;6971;50.028;9.258;2023-10-08T13:44:58;100311.03;;;19.33;98.21
13800;BME280;6971;50.028;9.258;2023-10-08T13:49:59;100310.44;;;19.41;97.00
13800;BME280;6971;50.028;9.258;2023-10-08T13:54:59;100295.97;;;19.32;98.34
13800;BME280;6971;50.028;9.258;2023-10-08T14:00:00;100298.69;;;19.43;99.14
13800;BME280;6971;50.028;9.258;2023-10-08T14:05:01;100288.19;;;19.29;98.98
13800;BME280;6971;50.028;9.258;2023-10-08T14:10:09;100295.38;;;19.28;100.00
13800;BME280;6971;50.028;9.258;2023-10-08T14:15:17;100288.22;;;19.04;100.00
13800;BME280;6971;50.028;9.258;2023-10-08T14:20:17;100286.16;;;18.97;100.00
13800;BME280;6971;50.028;9.258;2023-10-08T14:25:25;100281.84;;;19.18;100.00
13800;BME280;6971;50.028;9.258;2023-10-08T14:30:28;100281.56;;;19.46;100.00
13800;BME280;6971;50.028;9.258;2023-10-08T14:35:30;100278.22;;;19.20;100.00
13800;BME280;6971;50.028;9.258;2023-10-08T14:40:49;100282.38;;;19.35;99.89
13800;BME280;6971;50.028;9.258;2023-10-08T14:46:07;100278.44;;;19.05;100.00
13800;BME280;6971;50.028;9.258;2023-10-08T14:51:09;100265.09;;;19.16;100.00
13800;BME280;6971;50.028;9.258;2023-10-08T14:56:16;100264.28;;;19.03;100.00
13800;BME280;6971;50.028;9.258;2023-10-08T15:01:18;100252.56;;;19.05;100.00
13800;BME280;6971;50.028;9.258;2023-10-08T15:06:19;100247.06;;;18.96;100.00
13800;BME280;6971;50.028;9.258;2023-10-08T15:11:20;100221.44;;;18.93;100.00
13800;BME280;6971;50.028;9.258;2023-10-08T15:16:21;100224.88;;;18.59;100.00
13800;BME280;6971;50.028;9.258;2023-10-08T15:21:26;100218.00;;;18.44;100.00
13800;BME280;6971;50.028;9.258;2023-10-08T15:26:26;100232.31;;;18.05;100.00
13800;BME280;6971;50.028;9.258;2023-10-08T15:31:27;100243.63;;;17.96;100.00
13800;BME280;6971;50.028;9.258;2023-10-08T15:36:27;100205.97;;;17.76;100.00
13800;BME280;6971;50.028;9.258;2023-10-08T15:41:27;100231.16;;;17.46;100.00
13800;BME280;6971;50.028;9.258;2023-10-08T15:46:28;100246.09;;;17.35;100.00
13800;BME280;6971;50.028;9.258;2023-10-08T15:51:31;100228.41;;;17.47;100.00
13800;BME280;6971;50.028;9.258;2023-10-08T15:56:32;100238.63;;;17.15;100.00
13800;BME280;6971;50.028;9.258;2023-10-08T16:01:32;100234.38;;;17.12;100.00
13800;BME280;6971;50.028;9.258;2023-10-08T16:06:32;100234.09;;;16.89;100.00
13800;BME280;6971;50.028;9.258;2023-10-08T16:11:33;100214.06;;;16.83;100.00
13800;BME280;6971;50.028;9.258;2023-10-08T16:16:34;100214.28;;;16.80;100.00
13800;BME280;6971;50.028;9.258;2023-10-08T16:21:36;100228.84;;;16.34;100.00
13800;BME280;6971;50.028;9.258;2023-10-08T16:26:41;100229.53;;;16.23;100.00
13800;BME280;6971;50.028;9.258;2023-10-08T16:31:42;100253.09;;;16.15;100.00
13800;BME280;6971;50.028;9.258;2023-10-08T16:36:43;100280.13;;;15.94;100.00
13800;BME280;6971;50.028;9.258;2023-10-08T16:41:45;100274.13;;;16.05;100.00
13800;BME280;6971;50.028;9.258;2023-10-08T16:46:45;100264.53;;;15.88;100.00
13800;BME280;6971;50.028;9.258;2023-10-08T16:51:46;100254.31;;;15.67;100.00
13800;BME280;6971;50.028;9.258;2023-10-08T16:56:47;100272.72;;;15.56;100.00
13800;BME280;6971;50.028;9.258;2023-10-08T17:01:47;100279.41;;;15.32;100.00
13800;BME280;6971;50.028;9.258;2023-10-08T17:06:47;100266.69;;;15.23;100.00
13800;BME280;6971;50.028;9.258;2023-10-08T17:11:48;100269.72;;;15.02;100.00
13800;BME280;6971;50.028;9.258;2023-10-08T17:16:49;100251.84;;;14.90;100.00
13800;BME280;6971;50.028;9.258;2023-10-08T17:21:49;100213.84;;;14.89;100.00
13800;BME280;6971;50.028;9.258;2023-10-08T17:26:50;100203.13;;;14.76;100.00
13800;BME280;6971;50.028;9.258;2023-10-08T17:31:50;100209.09;;;14.80;100.00
13800;BME280;6971;50.028;9.258;2023-10-08T17:36:51;100220.59;;;14.64;100.00
13800;BME280;6971;50.028;9.258;2023-10-08T17:41:53;100215.91;;;14.53;100.00
13800;BME280;6971;50.028;9.258;2023-10-08T17:46:54;100218.31;;;14.42;100.00
13800;BME280;6971;50.028;9.258;2023-10-08T17:51:54;100213.47;;;14.34;100.00
13800;BME280;6971;50.028;9.258;2023-10-08T17:56:55;100209.88;;;14.19;100.00
13800;BME280;6971;50.028;9.258;2023-10-08T18:01:55;100197.41;;;14.05;100.00
13800;BME280;6971;50.028;9.258;2023-10-08T18:06:55;100200.56;;;13.95;100.00
13800;BME280;6971;50.028;9.258;2023-10-08T18:11:56;100189.91;;;13.81;100.00
13800;BME280;6971;50.028;9.258;2023-10-08T18:16:57;100191.44;;;13.85;100.00
13800;BME280;6971;50.028;9.258;2023-10-08T18:21:58;100188.00;;;13.83;100.00
13800;BME280;6971;50.028;9.258;2023-10-08T18:26:59;100184.84;;;13.76;100.00
13800;BME280;6971;50.028;9.258;2023-10-08T18:32:00;100186.72;;;13.58;100.00
13800;BME280;6971;50.028;9.258;2023-10-08T18:37:01;100185.84;;;13.57;100.00
13800;BME280;6971;50.028;9.258;2023-10-08T18:42:02;100182.69;;;13.51;100.00
13800;BME280;6971;50.028;9.258;2023-10-08T18:47:02;100185.50;;;13.64;100.00
13800;BME280;6971;50.028;9.258;2023-10-08T18:52:04;100186.53;;;13.61;100.00
13800;BME280;6971;50.028;9.258;2023-10-08T18:57:05;100197.16;;;13.43;100.00
13800;BME280;6971;50.028;9.258;2023-10-08T19:02:06;100175.63;;;13.34;100.00
13800;BME280;6971;50.028;9.258;2023-10-08T19:07:06;100171.03;;;13.37;100.00
13800;BME280;6971;50.028;9.258;2023-10-08T19:12:07;100169.84;;;13.43;100.00
13800;BME280;6971;50.028;9.258;2023-10-08T19:17:07;100161.38;;;13.36;100.00
13800;BME280;6971;50.028;9.258;2023-10-08T19:22:09;100156.69;;;13.41;100.00
13800;BME280;6971;50.028;9.258;2023-10-08T19:27:10;100153.59;;;13.33;100.00
13800;BME280;6971;50.028;9.258;2023-10-08T19:32:10;100151.19;;;13.28;100.00
13800;BME280;6971;50.028;9.258;2023-10-08T19:37:11;100148.97;;;13.21;100.00
13800;BME280;6971;50.028;9.258;2023-10-08T19:42:12;100160.19;;;13.08;100.00
13800;BME280;6971;50.028;9.258;2023-10-08T19:47:12;100150.28;;;12.96;100.00
13800;BME280;6971;50.028;9.258;2023-10-08T19:52:14;100138.91;;;12.93;100.00
13800;BME280;6971;50.028;9.258;2023-10-08T19:57:17;100154.03;;;12.91;100.00
13800;BME280;6971;50.028;9.258;2023-10-08T20:02:17;100141.09;;;12.85;100.00
13800;BME280;6971;50.028;9.258;2023-10-08T20:07:18;100139.63;;;12.79;100.00
13800;BME280;6971;50.028;9.258;2023-10-08T20:12:18;100142.19;;;12.81;100.00
13800;BME280;6971;50.028;9.258;2023-10-08T20:17:18;100137.16;;;12.76;100.00
13800;BME280;6971;50.028;9.258;2023-10-08T20:22:19;100134.50;;;12.76;100.00
13800;BME280;6971;50.028;9.258;2023-10-08T20:27:19;100140.63;;;12.77;100.00
13800;BME280;6971;50.028;9.258;2023-10-08T20:32:20;100138.94;;;12.76;100.00
13800;BME280;6971;50.028;9.258;2023-10-08T20:37:21;100141.56;;;12.76;100.00
13800;BME280;6971;50.028;9.258;2023-10-08T20:42:21;100136.81;;;12.83;100.00
13800;BME280;6971;50.028;9.258;2023-10-08T20:47:22;100141.13;;;12.68;100.00
13800;BME280;6971;50.028;9.258;2023-10-08T20:52:22;100132.97;;;12.72;100.00
13800;BME280;6971;50.028;9.258;2023-10-08T20:57:23;100134.44;;;12.60;100.00
13800;BME280;6971;50.028;9.258;2023-10-08T21:02:23;100135.44;;;12.58;100.00
13800;BME280;6971;50.028;9.258;2023-10-08T21:07:24;100127.06;;;12.49;100.00
13800;BME280;6971;50.028;9.258;2023-10-08T21:12:24;100135.00;;;12.49;100.00
13800;BME280;6971;50.028;9.258;2023-10-08T21:17:25;100135.84;;;12.50;100.00
13800;BME280;6971;50.028;9.258;2023-10-08T21:22:27;100127.28;;;12.45;100.00
13800;BME280;6971;50.028;9.258;2023-10-08T21:27:28;100121.25;;;12.43;100.00
13800;BME280;6971;50.028;9.258;2023-10-08T21:32:28;100126.81;;;12.36;100.00
13800;BME280;6971;50.028;9.258;2023-10-08T21:37:29;100110.34;;;12.31;100.00
13800;BME280;6971;50.028;9.258;2023-10-08T21:42:31;100106.00;;;12.30;100.00
13800;BME280;6971;50.028;9.258;2023-10-08T21:47:32;100097.44;;;12.25;100.00
13800;BME280;6971;50.028;9.258;2023-10-08T21:52:33;100085.59;;;12.14;100.00
13800;BME280;6971;50.028;9.258;2023-10-08T21:57:34;100079.78;;;12.08;100.00
13800;BME280;6971;50.028;9.258;2023-10-08T22:02:46;100071.59;;;11.95;100.00
13800;BME280;6971;50.028;9.258;2023-10-08T22:07:47;100065.75;;;11.88;100.00
13800;BME280;6971;50.028;9.258;2023-10-08T22:12:49;100055.19;;;11.88;100.00
13800;BME280;6971;50.028;9.258;2023-10-08T22:17:56;100047.66;;;11.80;100.00
13800;BME280;6971;50.028;9.258;2023-10-08T22:22:56;100051.44;;;11.74;100.00
13800;BME280;6971;50.028;9.258;2023-10-08T22:27:57;100043.28;;;11.79;100.00
13800;BME280;6971;50.028;9.258;2023-10-08T22:32:57;100043.44;;;11.58;100.00
13800;BME280;6971;50.028;9.258;2023-10-08T22:37:59;100044.16;;;11.43;100.00
13800;BME280;6971;50.028;9.258;2023-10-08T22:43:05;100040.31;;;11.50;100.00
13800;BME280;6971;50.028;9.258;2023-10-08T22:48:05;100037.53;;;11.34;100.00
13800;BME280;6971;50.028;9.258;2023-10-08T22:53:06;100038.75;;;11.27;100.00
13800;BME280;6971;50.028;9.258;2023-10-08T22:58:08;100031.59;;;11.29;100.00
13800;BME280;6971;50.028;9.258;2023-10-08T23:03:09;100031.41;;;11.14;100.00
13800;BME280;6971;50.028;9.258;2023-10-08T23:08:11;100024.00;;;11.22;100.00
13800;BME280;6971;50.028;9.258;2023-10-08T23:13:13;100028.06;;;11.10;100.00
13800;BME280;6971;50.028;9.258;2023-10-08T23:18:13;100019.84;;;11.17;100.00
13800;BME280;6971;50.028;9.258;2023-10-08T23:23:13;100011.59;;;11.05;100.00
13800;BME280;6971;50.028;9.258;2023-10-08T23:28:18;100003.31;;;11.13;100.00
13800;BME280;6971;50.028;9.258;2023-10-08T23:33:19;100014.81;;;11.12;100.00
13800;BME280;6971;50.028;9.258;2023-10-08T23:38:21;99994.41;;;11.16;100.00
13800;BME280;6971;50.028;9.258;2023-10-08T23:43:31;99987.56;;;11.12;100.00
13800;BME280;6971;50.028;9.258;2023-10-08T23:48:33;99988.50;;;11.10;100.00
13800;BME280;6971;50.028;9.258;2023-10-08T23:53:46;99982.66;;;11.04;100.00
13800;BME280;6971;50.028;9.258;2023-10-08T23:58:47;99991.91;;;10.93;100.00
